M I D A S
Marine Information and Data Acquisition System
Tripno 1494 of the Zeeleeuw from 2008-05-28 06:27:09 to 2008-05-28 15:19:20
Back to CruiseResearch ActivitiesStationsMapUnderway DataData graphs

EquipmentUnitsComments
TimeDGPSUTC
LatitudeDGPSDM.mWGS84
LongitudeDGPSDM.mWGS84
SpeedMeteo Stationm/sRelative wind speed
DirectionMeteo StationdegRelative wind direction
TemperatureMeteo Stationdeg CelciusAir temperature
PressureMeteo StationPaAtmospheric pressure
HumidityMeteo Station%Relative humidity
Missing or incorrect values are displayed as -999
Metereological data collected by the RV Zeeleeuw from 2008-05-28 06:27:47 to 2008-05-28 15:23:53
Time Latitude Longitude Speed Direction Temperature Pressure Humidity
2008-05-28 06:28 51°13.643 2°55.981 -999 -999 -999 -999 -999
2008-05-28 06:29 51°13.677 2°55.862 -999 -999 -999 -999 -999
2008-05-28 06:30 51°13.691 2°55.762 -999 -999 -999 -999 -999
2008-05-28 06:31 51°13.693 2°55.729 -999 -999 -999 -999 -999
2008-05-28 06:32 51°13.73 2°55.721 -999 -999 -999 -999 -999
2008-05-28 06:33 51°13.826 2°55.64 -999 -999 -999 -999 -999
2008-05-28 06:34 51°13.955 2°55.552 -999 -999 -999 -999 -999
2008-05-28 06:35 51°14.069 2°55.472 -999 -999 -999 -999 -999
2008-05-28 06:36 51°14.155 2°55.407 -999 -999 -999 -999 -999
2008-05-28 06:37 51°14.237 2°55.332 -999 -999 -999 -999 -999
2008-05-28 06:38 51°14.31 2°55.193 -999 -999 -999 -999 -999
2008-05-28 06:39 51°14.408 2°54.998 -999 -999 -999 -999 -999
2008-05-28 06:40 51°14.58 2°54.84 -999 -999 -999 -999 -999
2008-05-28 06:41 51°14.763 2°54.673 -999 -999 -999 -999 -999
2008-05-28 06:42 51°14.95 2°54.524 -999 -999 -999 -999 -999
2008-05-28 06:43 51°15.131 2°54.363 -999 -999 -999 -999 -999
2008-05-28 06:44 51°15.304 2°54.193 -999 -999 -999 -999 -999
2008-05-28 06:45 51°15.49 2°54.03 -999 -999 -999 -999 -999
2008-05-28 06:46 51°15.672 2°53.867 -999 -999 -999 -999 -999
2008-05-28 06:47 51°15.856 2°53.711 -999 -999 -999 -999 -999
2008-05-28 06:48 51°16.037 2°53.543 -999 -999 -999 -999 -999
2008-05-28 06:49 51°16.216 2°53.387 -999 -999 -999 -999 -999
2008-05-28 06:50 51°16.401 2°53.23 -999 -999 -999 -999 -999
2008-05-28 06:51 51°16.582 2°53.061 -999 -999 -999 -999 -999
2008-05-28 06:52 51°16.771 2°52.9 -999 -999 -999 -999 -999
2008-05-28 06:53 51°16.957 2°52.748 -999 -999 -999 -999 -999
2008-05-28 06:54 51°17.15 2°52.603 -999 -999 -999 -999 -999
2008-05-28 06:55 51°17.352 2°52.473 -999 -999 -999 -999 -999
2008-05-28 06:56 51°17.555 2°52.385 -999 -999 -999 -999 -999
2008-05-28 06:57 51°17.771 2°52.321 -999 -999 -999 -999 -999
2008-05-28 06:58 51°17.982 2°52.278 -999 -999 -999 -999 -999
2008-05-28 06:59 51°18.204 2°52.278 -999 -999 -999 -999 -999
2008-05-28 07:00 51°18.417 2°52.284 -999 -999 -999 -999 -999
2008-05-28 07:01 51°18.634 2°52.305 -999 -999 -999 -999 -999
2008-05-28 07:02 51°18.852 2°52.32 -999 -999 -999 -999 -999
2008-05-28 07:03 51°19.07 2°52.332 -999 -999 -999 -999 -999
2008-05-28 07:04 51°19.294 2°52.344 -999 -999 -999 -999 -999
2008-05-28 07:05 51°19.512 2°52.375 -999 -999 -999 -999 -999
2008-05-28 07:06 51°19.735 2°52.397 -999 -999 -999 -999 -999
2008-05-28 07:07 51°19.957 2°52.432 6 4 -999 -999 -999
2008-05-28 07:08 51°20.171 2°52.487 8.8 2 17.4 100390 87
2008-05-28 07:09 51°20.385 2°52.552 8.9 -999 17.4 100380 88
2008-05-28 07:10 51°20.601 2°52.618 8.5 3 17.3 100400 89
2008-05-28 07:11 51°20.819 2°52.652 7.7 3 17.3 100390 89
2008-05-28 07:12 51°21.036 2°52.681 6.6 7 17.3 100380 89
2008-05-28 07:13 51°21.254 2°52.705 8.2 9 17.3 100370 89
2008-05-28 07:14 51°21.474 2°52.733 6.1 5 17.3 100390 88
2008-05-28 07:15 51°21.693 2°52.754 7.1 6 17.2 100390 88
2008-05-28 07:16 51°21.914 2°52.78 6.9 7 17.2 100390 89
2008-05-28 07:17 51°22.137 2°52.81 6.4 8 17.2 100390 89
2008-05-28 07:18 51°22.358 2°52.837 5 4 17.1 100390 89
2008-05-28 07:19 51°22.58 2°52.868 6.3 4 17.1 100410 89
2008-05-28 07:20 51°22.804 2°52.901 5.9 10 17.1 100400 89
2008-05-28 07:21 51°23.025 2°52.93 6.3 7 17 100400 89
2008-05-28 07:22 51°23.249 2°52.962 6.9 10 17 100400 89
2008-05-28 07:23 51°23.473 2°52.992 7 12 17.1 100400 89
2008-05-28 07:24 51°23.697 2°53.031 7.8 13 17.1 100410 89
2008-05-28 07:25 51°23.923 2°53.068 8 12 17.1 100410 88
2008-05-28 07:26 51°24.149 2°53.103 6.9 12 17.2 100400 88
2008-05-28 07:27 51°24.372 2°53.137 7.1 14 17.2 100410 87
2008-05-28 07:28 51°24.596 2°53.17 7.2 8 17.3 100410 87
2008-05-28 07:29 51°24.815 2°53.187 7.6 13 17.3 100400 87
2008-05-28 07:30 51°25.037 2°53.204 6.7 21 17.3 100420 86
2008-05-28 07:31 51°25.257 2°53.215 7.1 11 17.3 100420 86
2008-05-28 07:32 51°25.478 2°53.248 7.2 10 17.3 100430 86
2008-05-28 07:33 51°25.7 2°53.275 6.8 14 17.3 100430 86
2008-05-28 07:34 51°25.923 2°53.303 5.2 5 17.2 100420 86
2008-05-28 07:35 51°26.147 2°53.331 5.1 6 17.2 100420 86
2008-05-28 07:36 51°26.371 2°53.351 6.3 9 17.2 100420 86
2008-05-28 07:37 51°26.592 2°53.379 5.4 10 17.2 100430 86
2008-05-28 07:38 51°26.813 2°53.411 5.6 10 17.1 100430 86
2008-05-28 07:39 51°27.036 2°53.433 4.4 8 17.1 100430 86
2008-05-28 07:40 51°27.257 2°53.464 6 6 17 100430 87
2008-05-28 07:41 51°27.481 2°53.493 5.5 9 17 100430 87
2008-05-28 07:42 51°27.705 2°53.519 5.3 9 17 100430 87
2008-05-28 07:43 51°27.927 2°53.547 5.7 6 17 100420 87
2008-05-28 07:44 51°28.148 2°53.58 6.1 8 17 100440 87
2008-05-28 07:45 51°28.371 2°53.619 5.7 7 17 100430 87
2008-05-28 07:46 51°28.593 2°53.649 5.5 7 16.9 100420 87
2008-05-28 07:47 51°28.813 2°53.67 4.4 6 16.9 100430 87
2008-05-28 07:48 51°29.034 2°53.689 5 5 16.9 100430 87
2008-05-28 07:49 51°29.256 2°53.71 7.3 8 16.9 100420 86
2008-05-28 07:50 51°29.478 2°53.731 6.5 9 16.9 100420 86
2008-05-28 07:51 51°29.699 2°53.757 5.8 5 17 100420 86
2008-05-28 07:52 51°29.921 2°53.783 6.7 6 17 100410 86
2008-05-28 07:53 51°30.143 2°53.805 6 12 17 100410 86
2008-05-28 07:54 51°30.367 2°53.826 5.2 7 17 100430 86
2008-05-28 07:55 51°30.589 2°53.847 5.9 2 17 100430 86
2008-05-28 07:56 51°30.813 2°53.871 5 7 16.9 100420 86
2008-05-28 07:57 51°31.04 2°53.895 5.4 4 16.8 100430 87
2008-05-28 07:58 51°31.265 2°53.918 6.2 4 16.8 100420 87
2008-05-28 07:59 51°31.489 2°53.939 5.5 1 16.8 100420 87
2008-05-28 08:00 51°31.714 2°53.955 5.1 5 16.7 100430 87
2008-05-28 08:01 51°31.941 2°53.977 5.2 4 16.7 100430 88
2008-05-28 08:02 51°32.168 2°53.999 6.3 9 16.7 100440 88
2008-05-28 08:03 51°32.394 2°54.019 6.7 13 16.7 100440 88
2008-05-28 08:04 51°32.622 2°54.041 7.3 10 16.7 100450 87
2008-05-28 08:05 51°32.85 2°54.066 7.2 13 16.7 100460 87
2008-05-28 08:06 51°33.076 2°54.095 7.6 7 16.7 100470 87
2008-05-28 08:07 51°33.294 2°54.183 7.6 4 16.7 100460 87
2008-05-28 08:08 51°33.5 2°54.329 9.2 2 16.6 100450 87
2008-05-28 08:09 51°33.697 2°54.507 9.9 5 16.5 100450 88
2008-05-28 08:10 51°33.893 2°54.687 9.5 5 16.5 100460 88
2008-05-28 08:11 51°34.083 2°54.889 10.9 1 16.6 100450 88
2008-05-28 08:12 51°34.264 2°55.109 9.7 -999 16.5 100460 87
2008-05-28 08:13 51°34.437 2°55.242 7.1 17 16.5 100450 88
2008-05-28 08:14 51°34.529 2°55.233 4.9 26 16.5 100460 88
2008-05-28 08:15 51°34.527 2°55.146 7.5 246 16.7 100470 88
2008-05-28 08:16 51°34.483 2°55.075 8.9 23 16.7 100470 87
2008-05-28 08:17 51°34.483 2°55.067 8.4 261 16.8 100480 86
2008-05-28 08:18 51°34.497 2°55.066 6.1 260 16.8 100480 86
2008-05-28 08:19 51°34.509 2°55.067 7.6 250 16.8 100460 86
2008-05-28 08:20 51°34.514 2°55.069 7.9 22 16.9 100470 86
2008-05-28 08:21 51°34.509 2°55.071 8.4 24 16.9 100460 85
2008-05-28 08:22 51°34.506 2°55.073 6.8 27 16.9 100470 85
2008-05-28 08:23 51°34.505 2°55.077 7.7 27 16.9 100470 85
2008-05-28 08:24 51°34.507 2°55.082 6.4 19 16.8 100470 85
2008-05-28 08:25 51°34.507 2°55.086 5.6 25 16.8 100460 86
2008-05-28 08:26 51°34.505 2°55.086 7.5 20 16.7 100460 86
2008-05-28 08:27 51°34.44 2°55.174 7.5 247 16.7 100460 86
2008-05-28 08:28 51°34.502 2°55.088 6.4 20 16.7 100450 86
2008-05-28 08:29 51°34.503 2°55.089 7.6 21 16.7 100460 87
2008-05-28 08:30 51°34.503 2°55.088 7.9 248 16.7 100460 87
2008-05-28 08:31 51°34.503 2°55.087 6.4 24 16.7 100480 87
2008-05-28 08:32 51°34.503 2°55.089 6.3 247 16.7 100470 87
2008-05-28 08:33 51°34.503 2°55.089 7.4 20 16.7 100460 87
2008-05-28 08:34 51°34.502 2°55.089 7.3 22 16.7 100470 87
2008-05-28 08:35 51°34.502 2°55.089 6.3 248 16.7 100470 87
2008-05-28 08:36 51°34.503 2°55.088 6.2 247 16.7 100470 87
2008-05-28 08:37 51°34.502 2°55.087 7.1 248 16.7 100460 87
2008-05-28 08:38 51°34.503 2°55.087 7.2 244 16.7 100470 87
2008-05-28 08:39 51°34.505 2°55.087 6.2 246 16.7 100470 87
2008-05-28 08:40 51°34.504 2°55.084 6.1 244 16.7 100470 87
2008-05-28 08:41 51°34.502 2°55.085 5.9 27 16.6 100470 87
2008-05-28 08:42 51°34.5 2°55.083 6.9 26 16.6 100480 87
2008-05-28 08:43 51°34.504 2°55.084 7.9 23 16.5 100470 88
2008-05-28 08:44 51°34.505 2°55.084 7.3 26 16.5 100470 88
2008-05-28 08:45 51°34.504 2°55.082 6.5 22 16.5 100490 88
2008-05-28 08:46 51°34.506 2°55.079 6.7 20 16.5 100480 88
2008-05-28 08:47 51°34.508 2°55.079 7.4 25 16.5 100480 89
2008-05-28 08:48 51°34.509 2°55.077 7.8 25 16.5 100490 89
2008-05-28 08:49 51°34.508 2°55.075 7.2 22 16.5 100490 89
2008-05-28 08:50 51°34.508 2°55.075 7.8 26 16.5 100490 89
2008-05-28 08:51 51°34.509 2°55.074 6.2 21 16.5 100490 89
2008-05-28 08:52 51°34.509 2°55.075 5.9 29 16.5 100500 89
2008-05-28 08:53 51°34.508 2°55.075 7.7 26 16.5 100490 89
2008-05-28 08:54 51°34.508 2°55.074 6 22 16.6 100500 89
2008-05-28 08:55 51°34.508 2°55.075 6.7 26 16.5 100500 89
2008-05-28 08:56 51°34.509 2°55.074 6.7 29 16.5 100490 89
2008-05-28 08:57 51°34.509 2°55.074 6.2 28 16.6 100480 89
2008-05-28 08:58 51°34.508 2°55.073 5.8 27 16.6 100490 89
2008-05-28 08:59 51°34.508 2°55.073 6.4 27 16.6 100480 89
2008-05-28 09:00 51°34.508 2°55.072 6.7 22 16.6 100480 89
2008-05-28 09:01 51°34.509 2°55.072 5.6 23 16.7 100490 88
2008-05-28 09:02 51°34.508 2°55.071 6.4 20 16.6 100490 88
2008-05-28 09:03 51°34.508 2°55.07 7.6 25 16.7 100490 88
2008-05-28 09:04 51°34.508 2°55.069 6.2 25 16.7 100490 88
2008-05-28 09:05 51°34.51 2°55.067 6.8 29 16.6 100500 88
2008-05-28 09:06 51°34.51 2°55.068 6.6 26 16.6 100490 89
2008-05-28 09:07 51°34.511 2°55.067 6.6 24 16.7 100500 89
2008-05-28 09:08 51°34.51 2°55.065 6.6 27 16.7 100490 88
2008-05-28 09:09 51°34.51 2°55.064 7.5 27 16.7 100500 88
2008-05-28 09:10 51°34.51 2°55.064 7.2 28 16.7 100490 89
2008-05-28 09:11 51°34.511 2°55.062 6.3 28 16.7 100490 88
2008-05-28 09:12 51°34.511 2°55.065 7.1 29 16.7 100490 88
2008-05-28 09:13 51°34.509 2°55.066 7.6 29 16.7 100490 88
2008-05-28 09:14 51°34.498 2°55.065 7.3 25 16.7 100490 89
2008-05-28 09:15 51°34.486 2°55.062 7.3 22 16.8 100480 88
2008-05-28 09:16 51°34.479 2°55.068 8.3 320 16.8 100480 87
2008-05-28 09:17 51°34.475 2°55.077 7.3 317 16.9 100490 87
2008-05-28 09:18 51°34.476 2°55.084 7.6 317 17 100490 86
2008-05-28 09:19 51°34.463 2°55.066 8.2 253 17.1 100480 85
2008-05-28 09:20 51°34.49 2°54.993 5.2 22 17.1 100490 85
2008-05-28 09:21 51°34.566 2°55.013 9.1 10 17.2 100500 84
2008-05-28 09:22 51°34.655 2°55.214 10.4 1 17.2 100480 83
2008-05-28 09:23 51°34.757 2°55.513 11 -999 17.1 100470 84
2008-05-28 09:24 51°34.862 2°55.817 10.5 359 17.1 100490 84
2008-05-28 09:25 51°34.955 2°56.128 11.5 359 17 100470 84
2008-05-28 09:26 51°35.054 2°56.442 11.1 359 17 100480 85
2008-05-28 09:27 51°35.155 2°56.751 10.3 1 17 100490 85
2008-05-28 09:28 51°35.248 2°57.065 11.1 360 17 100480 84
2008-05-28 09:29 51°35.34 2°57.381 10.5 359 17 100490 84
2008-05-28 09:30 51°35.435 2°57.694 10.2 1 16.9 100490 84
2008-05-28 09:31 51°35.531 2°58.003 10.3 359 16.9 100500 85
2008-05-28 09:32 51°35.621 2°58.311 10.3 356 16.9 100500 85
2008-05-28 09:33 51°35.714 2°58.618 9.9 1 16.9 100510 86
2008-05-28 09:34 51°35.75 2°58.94 12.3 348 16.9 100500 86
2008-05-28 09:35 51°35.671 2°59.229 13.8 343 17.1 100490 85
2008-05-28 09:36 51°35.55 2°59.479 14.2 339 17.2 100510 84
2008-05-28 09:37 51°35.423 2°59.718 14.5 339 17.2 100520 83
2008-05-28 09:38 51°35.297 2°59.958 13.6 337 17.3 100520 83
2008-05-28 09:39 51°35.171 3°0.194 12.9 340 17.3 100530 83
2008-05-28 09:40 51°35.042 3°0.429 15.6 338 17.4 100520 83
2008-05-28 09:41 51°34.914 3°0.662 14 338 17.4 100520 82
2008-05-28 09:42 51°34.787 3°0.896 15.8 339 17.5 100520 81
2008-05-28 09:43 51°34.64 3°1.082 14.2 329 17.6 100510 81
2008-05-28 09:44 51°34.458 3°1.11 14.3 323 17.6 100510 80
2008-05-28 09:45 51°34.312 3°0.941 14.9 22 17.7 100520 80
2008-05-28 09:46 51°34.233 3°0.651 11.5 25 17.7 100500 80
2008-05-28 09:47 51°34.164 3°0.364 17 24 17.7 100500 80
2008-05-28 09:48 51°34.082 3°0.183 12.8 27 17.7 100510 80
2008-05-28 09:49 51°33.962 2°59.803 15.7 27 17.7 100510 81
2008-05-28 09:50 51°33.851 2°59.524 13.9 25 17.6 100520 81
2008-05-28 09:51 51°33.753 2°59.263 13.6 20 17.6 100520 81
2008-05-28 09:52 51°33.645 2°58.999 13.7 28 17.5 100520 82
2008-05-28 09:53 51°33.537 2°58.737 13.5 25 17.4 100530 83
2008-05-28 09:54 51°33.425 2°58.476 12.3 24 17.4 100520 84
2008-05-28 09:55 51°33.325 2°58.238 13.2 23 17.3 100520 84
2008-05-28 09:56 51°33.231 2°58.01 11.3 27 17.3 100520 85
2008-05-28 09:57 51°33.142 2°57.797 11.4 25 17.3 100520 85
2008-05-28 09:58 51°33.094 2°57.677 9.6 26 17.2 100540 85
2008-05-28 09:59 51°33.071 2°57.622 10 24 17.3 100550 85
2008-05-28 10:00 51°33.065 2°57.589 10.3 27 17.3 100550 85
2008-05-28 10:01 51°33.066 2°57.562 11.4 25 17.4 100550 85
2008-05-28 10:02 51°33.078 2°57.538 7.5 24 17.5 100560 84
2008-05-28 10:03 51°33.085 2°57.524 9.8 26 17.6 100560 84
2008-05-28 10:04 51°33.1 2°57.509 9.3 20 17.6 100570 84
2008-05-28 10:05 51°33.115 2°57.495 9.8 246 17.6 100570 83
2008-05-28 10:06 51°33.13 2°57.482 8.9 246 17.6 100560 83
2008-05-28 10:07 51°33.145 2°57.468 9.4 245 17.6 100570 83
2008-05-28 10:08 51°33.161 2°57.455 7.6 246 17.7 100570 83
2008-05-28 10:09 51°33.179 2°57.443 9.7 27 17.7 100570 83
2008-05-28 10:10 51°33.194 2°57.431 9.8 243 17.7 100580 82
2008-05-28 10:11 51°33.211 2°57.418 10.5 246 17.7 100570 82
2008-05-28 10:12 51°33.228 2°57.407 9.8 247 17.7 100580 81
2008-05-28 10:13 51°33.245 2°57.399 10.5 251 17.7 100570 81
2008-05-28 10:14 51°33.264 2°57.393 7.5 251 17.7 100580 81
2008-05-28 10:15 51°33.281 2°57.386 9.2 250 17.7 100570 81
2008-05-28 10:16 51°33.298 2°57.376 9.2 22 17.7 100580 81
2008-05-28 10:17 51°33.315 2°57.367 6.7 248 17.6 100590 81
2008-05-28 10:18 51°33.331 2°57.357 6.8 246 17.6 100590 82
2008-05-28 10:19 51°33.348 2°57.347 7.8 248 17.6 100590 82
2008-05-28 10:20 51°33.363 2°57.34 8 248 17.6 100580 82
2008-05-28 10:21 51°33.38 2°57.331 6.8 249 17.6 100580 82
2008-05-28 10:22 51°33.396 2°57.32 7.7 249 17.6 100600 82
2008-05-28 10:23 51°33.41 2°57.311 8.3 249 17.5 100590 82
2008-05-28 10:24 51°33.427 2°57.296 8.6 254 17.5 100590 82
2008-05-28 10:25 51°33.444 2°57.292 9.3 249 17.5 100590 82
2008-05-28 10:26 51°33.461 2°57.28 9.8 248 17.5 100590 82
2008-05-28 10:27 51°33.475 2°57.274 9.9 250 17.5 100600 82
2008-05-28 10:28 51°33.492 2°57.263 7.9 251 17.5 100600 82
2008-05-28 10:29 51°33.509 2°57.253 9.6 252 17.6 100580 81
2008-05-28 10:30 51°33.525 2°57.243 10.5 252 17.6 100580 81
2008-05-28 10:31 51°33.541 2°57.232 8.4 253 17.6 100580 81
2008-05-28 10:32 51°33.556 2°57.222 8.9 255 17.6 100590 81
2008-05-28 10:33 51°33.571 2°57.212 9 253 17.6 100600 80
2008-05-28 10:34 51°33.597 2°57.204 11.4 253 17.6 100600 80
2008-05-28 10:35 51°33.601 2°57.19 9 255 17.6 100610 81
2008-05-28 10:36 51°33.617 2°57.178 9.8 253 17.6 100610 81
2008-05-28 10:37 51°33.633 2°57.166 9.4 250 17.6 100590 80
2008-05-28 10:38 51°33.647 2°57.152 9.5 252 17.7 100590 80
2008-05-28 10:39 51°33.661 2°57.138 9.3 250 17.7 100590 80
2008-05-28 10:40 51°33.676 2°57.125 9.6 251 17.7 100600 79
2008-05-28 10:41 51°33.692 2°57.113 14 253 17.7 100590 79
2008-05-28 10:42 51°33.708 2°57.099 9.9 254 17.8 100590 79
2008-05-28 10:43 51°33.723 2°57.088 11.3 255 17.8 100590 79
2008-05-28 10:44 51°33.739 2°57.076 12 255 17.8 100600 79
2008-05-28 10:45 51°33.755 2°57.066 10 257 17.8 100600 79
2008-05-28 10:46 51°33.771 2°57.056 12.1 255 17.8 100610 78
2008-05-28 10:47 51°33.788 2°57.046 14 256 17.7 100600 78
2008-05-28 10:48 51°33.804 2°57.036 14.3 254 17.7 100610 78
2008-05-28 10:49 51°33.821 2°57.026 12.6 258 17.6 100600 78
2008-05-28 10:50 51°33.839 2°57.017 11.3 254 17.6 100600 77
2008-05-28 10:51 51°33.855 2°57.007 12.9 257 17.6 100600 77
2008-05-28 10:52 51°33.872 2°56.997 11.4 257 17.5 100610 77
2008-05-28 10:53 51°33.888 2°56.986 10.3 259 17.5 100620 77
2008-05-28 10:54 51°33.905 2°56.975 11.3 258 17.5 100630 77
2008-05-28 10:55 51°33.921 2°56.964 12 258 17.5 100600 77
2008-05-28 10:56 51°33.937 2°56.955 12.8 257 17.4 100620 77
2008-05-28 10:57 51°33.952 2°56.944 12.3 256 17.4 100630 77
2008-05-28 10:58 51°33.967 2°56.932 10.5 253 17.3 100630 77
2008-05-28 10:59 51°33.983 2°56.922 12 256 17.3 100620 77
2008-05-28 11:00 51°33.974 2°56.868 11.4 319 17.3 100620 76
2008-05-28 11:01 51°33.851 2°56.736 17.8 319 17.4 100590 75
2008-05-28 11:02 51°33.685 2°56.57 17.5 323 17.4 100600 74
2008-05-28 11:03 51°33.512 2°56.412 13.9 321 17.5 100580 73
2008-05-28 11:04 51°33.338 2°56.256 17.3 323 17.5 100580 74
2008-05-28 11:05 51°33.164 2°56.104 16.7 322 17.5 100580 74
2008-05-28 11:06 51°32.978 2°55.997 17.6 327 17.6 100590 73
2008-05-28 11:07 51°32.787 2°55.923 18.3 323 17.5 100590 74
2008-05-28 11:08 51°32.617 2°55.766 14.2 317 17.5 100590 74
2008-05-28 11:09 51°32.487 2°55.524 16.9 25 17.5 100570 74
2008-05-28 11:10 51°32.372 2°55.258 18.6 26 17.5 100570 74
2008-05-28 11:11 51°32.258 2°54.992 17.8 23 17.5 100560 74
2008-05-28 11:12 51°32.141 2°54.727 16.8 22 17.5 100580 75
2008-05-28 11:13 51°32.025 2°54.46 17.4 24 17.5 100570 75
2008-05-28 11:14 51°31.924 2°54.175 14 20 17.5 100570 75
2008-05-28 11:15 51°31.826 2°53.889 13.1 22 17.5 100580 75
2008-05-28 11:16 51°31.727 2°53.606 12.7 26 17.5 100570 76
2008-05-28 11:17 51°31.625 2°53.323 15.4 23 17.5 100580 76
2008-05-28 11:18 51°31.516 2°53.044 13.1 27 17.4 100580 77
2008-05-28 11:19 51°31.41 2°52.764 16.2 29 17.4 100580 77
2008-05-28 11:20 51°31.301 2°52.486 13.1 25 17.3 100600 77
2008-05-28 11:21 51°31.193 2°52.211 12.6 28 17.3 100590 77
2008-05-28 11:22 51°31.085 2°51.937 15 29 17.3 100600 78
2008-05-28 11:23 51°30.979 2°51.662 16 24 17.2 100600 78
2008-05-28 11:24 51°30.87 2°51.386 17.5 25 17.2 100600 78
2008-05-28 11:25 51°30.766 2°51.11 18.9 26 17.2 100590 78
2008-05-28 11:26 51°30.665 2°50.828 16.2 24 17.3 100600 76
2008-05-28 11:27 51°30.564 2°50.547 19.4 25 17.4 100580 75
2008-05-28 11:28 51°30.465 2°50.265 16.4 24 17.4 100590 74
2008-05-28 11:29 51°30.365 2°49.983 20.6 24 17.5 100580 74
2008-05-28 11:30 51°30.264 2°49.7 17.2 23 17.5 100590 74
2008-05-28 11:31 51°30.164 2°49.414 15.3 22 17.5 100600 75
2008-05-28 11:32 51°30.066 2°49.126 16.7 21 17.4 100590 75
2008-05-28 11:33 51°29.964 2°48.839 20.3 21 17.3 100600 75
2008-05-28 11:34 51°29.863 2°48.555 19.4 26 17.3 100600 74
2008-05-28 11:35 51°29.763 2°48.268 14.5 24 17.4 100580 74
2008-05-28 11:36 51°29.667 2°47.975 18 26 17.4 100590 74
2008-05-28 11:37 51°29.567 2°47.687 16.1 28 17.4 100610 74
2008-05-28 11:38 51°29.464 2°47.398 13.5 25 17.3 100600 75
2008-05-28 11:39 51°29.361 2°47.112 18 25 17.2 100590 74
2008-05-28 11:40 51°29.255 2°46.829 19.3 22 17.2 100630 74
2008-05-28 11:41 51°29.154 2°46.542 19 26 17.2 100600 74
2008-05-28 11:42 51°29.051 2°46.259 15.1 28 17.2 100610 73
2008-05-28 11:43 51°28.95 2°45.972 18.3 27 17.3 100610 73
2008-05-28 11:44 51°28.851 2°45.684 19 28 17.2 100610 73
2008-05-28 11:45 51°28.75 2°45.398 15.8 25 17.2 100620 73
2008-05-28 11:46 51°28.65 2°45.111 14.3 26 17.1 100610 74
2008-05-28 11:47 51°28.546 2°44.831 17.7 28 17.1 100640 75
2008-05-28 11:48 51°28.444 2°44.552 17.7 28 17.1 100630 75
2008-05-28 11:49 51°28.337 2°44.272 15.8 24 17.1 100620 75
2008-05-28 11:50 51°28.23 2°43.988 18.6 24 17.1 100630 75
2008-05-28 11:51 51°28.125 2°43.707 18.5 24 17.1 100630 75
2008-05-28 11:52 51°28.019 2°43.425 18.4 23 17.1 100630 76
2008-05-28 11:53 51°27.911 2°43.145 17.2 24 17.1 100620 76
2008-05-28 11:54 51°27.801 2°42.862 17.6 23 17 100620 76
2008-05-28 11:55 51°27.654 2°42.648 19.4 324 17 100660 77
2008-05-28 11:56 51°27.46 2°42.596 14.8 330 17 100680 77
2008-05-28 11:57 51°27.269 2°42.658 18.3 343 16.9 100660 78
2008-05-28 11:58 51°27.099 2°42.813 16.8 346 17 100670 78
2008-05-28 11:59 51°26.996 2°43.066 14.5 359 16.9 100690 78
2008-05-28 12:00 51°26.963 2°43.363 15.4 3 16.9 100660 78
2008-05-28 12:01 51°26.94 2°43.666 12.6 4 16.9 100650 78
2008-05-28 12:02 51°26.94 2°43.971 12.8 8 16.8 100660 78
2008-05-28 12:03 51°26.967 2°44.275 12 10 16.8 100680 79
2008-05-28 12:04 51°27.016 2°44.572 11.9 13 16.9 100690 78
2008-05-28 12:05 51°27.079 2°44.866 11.1 13 16.9 100690 78
2008-05-28 12:06 51°27.139 2°45.168 11 16 16.9 100700 79
2008-05-28 12:07 51°27.2 2°45.457 11.7 15 16.8 100700 79
2008-05-28 12:08 51°27.264 2°45.741 10.2 20 16.8 100700 78
2008-05-28 12:09 51°27.359 2°46.005 11.6 24 16.9 100710 78
2008-05-28 12:10 51°27.457 2°46.265 10.9 18 16.8 100720 78
2008-05-28 12:11 51°27.55 2°46.535 9.5 20 16.8 100720 78
2008-05-28 12:12 51°27.645 2°46.801 10.9 17 16.8 100710 78
2008-05-28 12:13 51°27.676 2°47.097 11.2 8 16.8 100690 76
2008-05-28 12:14 51°27.656 2°47.403 14.4 2 16.8 100680 75
2008-05-28 12:15 51°27.655 2°47.707 15.2 11 16.8 100680 74
2008-05-28 12:16 51°27.69 2°48.003 12 17 16.9 100690 73
2008-05-28 12:17 51°27.767 2°48.274 9.8 24 17 100710 73
2008-05-28 12:18 51°27.872 2°48.524 8.7 30 17 100720 73
2008-05-28 12:19 51°27.982 2°48.775 9.1 25 17 100730 73
2008-05-28 12:20 51°28.087 2°49.026 9.1 25 17 100720 73
2008-05-28 12:21 51°28.192 2°49.277 9 26 17 100730 74
2008-05-28 12:22 51°28.293 2°49.53 8.6 18 17 100710 75
2008-05-28 12:23 51°28.395 2°49.786 8.5 19 17 100730 76
2008-05-28 12:24 51°28.494 2°50.041 8.7 25 16.9 100720 76
2008-05-28 12:25 51°28.599 2°50.294 9.4 18 16.9 100740 76
2008-05-28 12:26 51°28.702 2°50.547 9.7 16 17 100740 76
2008-05-28 12:27 51°28.803 2°50.805 8.5 18 17 100740 75
2008-05-28 12:28 51°28.905 2°51.062 9.2 26 17 100750 75
2008-05-28 12:29 51°29.005 2°51.322 9 21 17 100740 73
2008-05-28 12:30 51°29.109 2°51.579 11 18 17.1 100750 72
2008-05-28 12:31 51°29.213 2°51.838 12.3 17 17.2 100750 70
2008-05-28 12:32 51°29.315 2°52.101 12.3 21 17.3 100740 69
2008-05-28 12:33 51°29.414 2°52.368 11.7 21 17.3 100750 69
2008-05-28 12:34 51°29.513 2°52.632 13.9 22 17.3 100750 69
2008-05-28 12:35 51°29.609 2°52.896 10.9 24 17.4 100740 68
2008-05-28 12:36 51°29.709 2°53.156 11.2 22 17.4 100760 69
2008-05-28 12:37 51°29.81 2°53.421 10.8 21 17.3 100760 70
2008-05-28 12:38 51°29.911 2°53.687 9.3 17 17.3 100750 70
2008-05-28 12:39 51°30.012 2°53.95 9.7 17 17.3 100750 71
2008-05-28 12:40 51°30.118 2°54.206 9.7 16 17.3 100760 72
2008-05-28 12:41 51°30.222 2°54.468 8.4 13 17.2 100760 73
2008-05-28 12:42 51°30.323 2°54.723 9.7 14 17.2 100760 74
2008-05-28 12:43 51°30.42 2°54.978 9.8 18 17.1 100760 75
2008-05-28 12:44 51°30.516 2°55.241 8.9 21 17.1 100760 74
2008-05-28 12:45 51°30.612 2°55.502 8.2 11 17.1 100750 74
2008-05-28 12:46 51°30.709 2°55.76 9.4 14 17.1 100760 74
2008-05-28 12:47 51°30.803 2°56.018 7.6 15 17.1 100750 75
2008-05-28 12:48 51°30.897 2°56.277 8.3 15 17.1 100760 75
2008-05-28 12:49 51°30.993 2°56.532 9.3 16 17.1 100760 74
2008-05-28 12:50 51°31.086 2°56.788 10.2 14 17.3 100770 73
2008-05-28 12:51 51°31.176 2°57.044 10.2 15 17.3 100770 73
2008-05-28 12:52 51°31.262 2°57.302 9.6 19 17.4 100750 72
2008-05-28 12:53 51°31.35 2°57.56 12.5 12 17.5 100770 72
2008-05-28 12:54 51°31.429 2°57.828 11.3 13 17.5 100760 72
2008-05-28 12:55 51°31.51 2°58.095 12.3 17 17.5 100760 72
2008-05-28 12:56 51°31.589 2°58.365 11.7 16 17.5 100770 72
2008-05-28 12:57 51°31.671 2°58.635 12.6 16 17.6 100770 72
2008-05-28 12:58 51°31.749 2°58.905 9.6 16 17.5 100770 72
2008-05-28 12:59 51°31.83 2°59.176 9.7 15 17.5 100770 72
2008-05-28 13:00 51°31.914 2°59.442 10.3 14 17.5 100780 73
2008-05-28 13:01 51°31.994 2°59.709 9.9 10 17.5 100770 75
2008-05-28 13:02 51°32.074 2°59.975 9.4 11 17.4 100780 75
2008-05-28 13:03 51°32.155 3°0.243 9.8 14 17.3 100770 76
2008-05-28 13:04 51°32.242 3°0.51 10.4 16 17.4 100780 76
2008-05-28 13:05 51°32.331 3°0.773 9.7 14 17.4 100780 76
2008-05-28 13:06 51°32.427 3°1.034 8.7 18 17.4 100770 76
2008-05-28 13:07 51°32.523 3°1.295 10.8 13 17.4 100770 76
2008-05-28 13:08 51°32.621 3°1.562 10.4 17 17.5 100770 74
2008-05-28 13:09 51°32.714 3°1.821 8.9 12 17.5 100780 74
2008-05-28 13:10 51°32.773 3°2.107 11.1 6 17.5 100770 74
2008-05-28 13:11 51°32.804 3°2.411 11.7 8 17.6 100770 73
2008-05-28 13:12 51°32.838 3°2.715 12.1 7 17.5 100760 74
2008-05-28 13:13 51°32.86 3°3.022 12.2 8 17.5 100760 74
2008-05-28 13:14 51°32.824 3°3.306 16.4 357 17.6 100740 72
2008-05-28 13:15 51°32.824 3°3.306 14.6 358 17.6 100760 72
2008-05-28 13:16 51°32.686 3°3.913 16.6 356 17.6 100740 72
2008-05-28 13:17 51°32.557 3°4.161 18.1 347 17.6 100750 72
2008-05-28 13:18 51°32.396 3°4.354 18.6 345 17.6 100760 73
2008-05-28 13:19 51°32.232 3°4.543 18.1 343 17.6 100760 73
2008-05-28 13:20 51°32.037 3°4.62 18.5 329 17.8 100770 72
2008-05-28 13:21 51°31.844 3°4.509 19.5 319 17.9 100750 72
2008-05-28 13:22 51°31.688 3°4.278 17.9 23 18 100750 69
2008-05-28 13:23 51°31.556 3°4.002 20.4 27 18.1 100730 68
2008-05-28 13:24 51°31.43 3°3.721 17 25 18.1 100730 68
2008-05-28 13:25 51°31.303 3°3.439 16.6 26 18.1 100750 68
2008-05-28 13:26 51°31.185 3°3.152 16.7 24 18.1 100740 68
2008-05-28 13:27 51°31.072 3°2.848 13.6 26 18 100750 69
2008-05-28 13:28 51°30.969 3°2.552 21.9 28 18 100760 69
2008-05-28 13:29 51°30.862 3°2.252 13.9 26 18.1 100720 67
2008-05-28 13:30 51°30.756 3°1.951 18.8 26 18.2 100750 67
2008-05-28 13:31 51°30.65 3°1.65 17.8 27 18.2 100740 66
2008-05-28 13:32 51°30.539 3°1.35 15.2 26 18.2 100740 66
2008-05-28 13:33 51°30.428 3°1.05 17.1 24 18.2 100750 66
2008-05-28 13:34 51°30.315 3°0.743 18.5 26 18.2 100730 66
2008-05-28 13:35 51°30.206 3°0.45 13.8 28 18.2 100740 67
2008-05-28 13:36 51°30.093 3°0.144 17.7 24 18.2 100770 68
2008-05-28 13:37 51°29.99 2°59.844 13.6 27 18.1 100760 69
2008-05-28 13:38 51°29.883 2°59.54 18.8 24 18 100750 69
2008-05-28 13:39 51°29.774 2°59.227 14.6 25 18 100750 68
2008-05-28 13:40 51°29.671 2°58.927 15.2 23 18.1 100720 68
2008-05-28 13:41 51°29.565 2°58.617 13.9 26 18.1 100750 69
2008-05-28 13:42 51°29.463 2°58.321 15.1 22 18.1 100740 69
2008-05-28 13:43 51°29.356 2°58.016 16 24 18 100740 69
2008-05-28 13:44 51°29.252 2°57.713 17.7 22 18 100750 69
2008-05-28 13:45 51°29.145 2°57.41 18.8 25 18 100750 70
2008-05-28 13:46 51°29.043 2°57.107 15 25 17.9 100740 69
2008-05-28 13:47 51°28.938 2°56.803 17.9 26 18 100740 68
2008-05-28 13:48 51°28.833 2°56.497 15.9 25 18.2 100710 67
2008-05-28 13:49 51°28.731 2°56.192 16.9 22 18.2 100730 67
2008-05-28 13:50 51°28.625 2°55.881 15.2 27 18.2 100740 68
2008-05-28 13:51 51°28.524 2°55.581 18.4 27 18.2 100740 68
2008-05-28 13:52 51°28.42 2°55.275 19.3 24 18.2 100730 67
2008-05-28 13:53 51°28.316 2°54.968 21.6 24 18.2 100730 68
2008-05-28 13:54 51°28.21 2°54.665 17.5 23 18.1 100740 69
2008-05-28 13:55 51°28.106 2°54.359 16.2 27 18 100720 69
2008-05-28 13:56 51°27.999 2°54.054 16 25 18.1 100730 68
2008-05-28 13:57 51°27.892 2°53.745 18.6 23 18.1 100710 68
2008-05-28 13:58 51°27.788 2°53.445 16.1 24 18.1 100730 68
2008-05-28 13:59 51°27.681 2°53.145 17.5 26 18.1 100740 69
2008-05-28 14:00 51°27.573 2°52.842 15.3 23 18 100720 69
2008-05-28 14:01 51°27.466 2°52.537 15.7 26 18 100740 70
2008-05-28 14:02 51°27.359 2°52.233 18.8 24 17.9 100740 71
2008-05-28 14:03 51°27.252 2°51.929 18.6 22 17.8 100760 72
2008-05-28 14:04 51°27.14 2°51.629 14.8 22 17.8 100750 73
2008-05-28 14:05 51°27.028 2°51.327 21.2 22 17.8 100770 73
2008-05-28 14:06 51°26.912 2°51.026 21 23 17.8 100730 71
2008-05-28 14:07 51°26.794 2°50.734 14.9 23 17.9 100740 72
2008-05-28 14:08 51°26.68 2°50.446 18 24 17.9 100740 71
2008-05-28 14:09 51°26.564 2°50.156 19.3 22 18 100720 68
2008-05-28 14:10 51°26.446 2°49.866 18.4 25 18.1 100740 68
2008-05-28 14:11 51°26.33 2°49.574 18.9 25 18.1 100750 69
2008-05-28 14:12 51°26.214 2°49.283 20.2 27 18 100740 69
2008-05-28 14:13 51°26.092 2°48.991 22.2 21 18 100750 69
2008-05-28 14:14 51°25.961 2°48.717 21.4 26 18 100750 69
2008-05-28 14:15 51°25.826 2°48.45 16.8 315 18 100770 69
2008-05-28 14:16 51°25.679 2°48.209 16.9 319 18 100770 69
2008-05-28 14:17 51°25.503 2°48.008 20.1 325 17.9 100780 70
2008-05-28 14:18 51°25.321 2°47.856 21.7 328 17.9 100780 70
2008-05-28 14:19 51°25.128 2°47.725 19.4 323 17.9 100800 70
2008-05-28 14:20 51°24.932 2°47.602 18.7 328 17.9 100810 71
2008-05-28 14:21 51°24.734 2°47.537 19.8 333 17.8 100810 71
2008-05-28 14:22 51°24.531 2°47.558 18.7 339 17.8 100800 71
2008-05-28 14:23 51°24.351 2°47.665 20.5 344 17.9 100790 70
2008-05-28 14:24 51°24.171 2°47.79 17 341 18 100780 68
2008-05-28 14:25 51°23.996 2°47.908 20.2 346 18 100750 69
2008-05-28 14:26 51°23.811 2°48.028 21.9 343 18 100780 69
2008-05-28 14:27 51°23.631 2°48.139 17.3 342 18 100790 70
2008-05-28 14:28 51°23.448 2°48.253 19.6 344 17.9 100790 70
2008-05-28 14:29 51°23.26 2°48.369 18.2 345 18.1 100780 68
2008-05-28 14:30 51°23.076 2°48.48 18.8 347 18.2 100790 67
2008-05-28 14:31 51°22.886 2°48.598 17.8 344 18.1 100790 68
2008-05-28 14:32 51°22.698 2°48.713 15.8 343 18 100810 70
2008-05-28 14:33 51°22.505 2°48.837 19.1 342 17.9 100800 72
2008-05-28 14:34 51°22.32 2°48.957 16.5 343 17.9 100820 72
2008-05-28 14:35 51°22.133 2°49.08 17 342 17.8 100820 72
2008-05-28 14:36 51°21.946 2°49.199 15.1 344 17.9 100810 72
2008-05-28 14:37 51°21.762 2°49.318 17.4 342 18 100810 70
2008-05-28 14:38 51°21.573 2°49.441 18.7 342 18.1 100800 70
2008-05-28 14:39 51°21.391 2°49.559 18.3 343 18.2 100790 68
2008-05-28 14:40 51°21.201 2°49.673 16.3 342 18.3 100810 68
2008-05-28 14:41 51°21.016 2°49.784 15 341 18.3 100800 70
2008-05-28 14:42 51°20.824 2°49.897 16.5 344 18.2 100820 70
2008-05-28 14:43 51°20.64 2°50.007 17.2 344 18.1 100820 70
2008-05-28 14:44 51°20.451 2°50.119 16.5 345 18.1 100820 70
2008-05-28 14:45 51°20.258 2°50.233 17.3 344 18.1 100810 69
2008-05-28 14:46 51°20.072 2°50.348 18.7 343 18.2 100820 68
2008-05-28 14:47 51°19.88 2°50.466 22 344 18.2 100810 69
2008-05-28 14:48 51°19.694 2°50.583 16.2 343 18.2 100820 68
2008-05-28 14:49 51°19.501 2°50.7 14.4 343 18.2 100830 69
2008-05-28 14:50 51°19.325 2°50.839 16.9 356 18.2 100820 66
2008-05-28 14:51 51°19.208 2°51.101 15.9 357 18.4 100830 66
2008-05-28 14:52 51°19.089 2°51.357 14.8 358 18.3 100840 67
2008-05-28 14:53 51°18.957 2°51.597 15.7 350 18.2 100820 68
2008-05-28 14:54 51°18.773 2°51.729 18.4 346 18.2 100810 67
2008-05-28 14:55 51°18.581 2°51.826 19.4 345 18.4 100810 65
2008-05-28 14:56 51°18.378 2°51.903 19 343 18.4 100830 66
2008-05-28 14:57 51°18.182 2°51.977 16.4 345 18.4 100830 67
2008-05-28 14:58 51°17.98 2°52.054 17.1 341 18.4 100830 65
2008-05-28 14:59 51°17.781 2°52.133 16.3 343 18.5 100840 65
2008-05-28 15:00 51°17.585 2°52.218 15.4 343 18.5 100840 65
2008-05-28 15:01 51°17.381 2°52.299 15.6 343 18.5 100850 66
2008-05-28 15:02 51°17.191 2°52.399 17 348 18.5 100840 66
2008-05-28 15:03 51°17.009 2°52.566 15.2 351 18.5 100830 66
2008-05-28 15:04 51°16.841 2°52.742 13.4 351 18.5 100840 66
2008-05-28 15:05 51°16.671 2°52.929 14.9 349 18.4 100850 67
2008-05-28 15:06 51°16.505 2°53.106 15.3 349 18.4 100850 67
2008-05-28 15:07 51°16.328 2°53.274 15.6 349 18.4 100850 67
2008-05-28 15:08 51°16.149 2°53.41 14.5 344 18.4 100860 66
2008-05-28 15:09 51°15.961 2°53.53 15.1 346 18.5 100860 67
2008-05-28 15:10 51°15.769 2°53.647 13.9 344 18.5 100870 67
2008-05-28 15:11 51°15.58 2°53.762 13.7 344 18.5 100870 67
2008-05-28 15:12 51°15.395 2°53.884 12.9 343 18.6 100870 66
2008-05-28 15:13 51°15.213 2°54.003 14.8 343 18.8 100860 65
2008-05-28 15:14 51°15.028 2°54.14 13.2 343 18.9 100880 65
2008-05-28 15:15 51°14.853 2°54.293 11.7 347 19 100870 63
2008-05-28 15:16 51°14.698 2°54.499 12.3 348 19.1 100880 64
2008-05-28 15:17 51°14.563 2°54.736 14.2 350 19.2 100890 64
2008-05-28 15:18 51°14.44 2°54.987 9.4 352 19.3 100870 62
2008-05-28 15:19 51°14.329 2°55.207 8.2 351 19.4 100890 62
2008-05-28 15:20 51°14.232 2°55.334 9.7 340 19.6 100910 61
2008-05-28 15:21 51°14.166 2°55.407 6.5 343 19.7 100900 60
2008-05-28 15:22 51°14.098 2°55.458 5.8 350 19.7 100910 61
2008-05-28 15:23 51°14.024 2°55.507 7.1 338 19.7 100920 61